Time;durP1;ratioP1;P1;durP2;ratioP2;P2;SDS_P1;SDS_P2;PMS_P1;PMS_P2;Temp;Humidity;BMP_temperature;BMP_pressure;BME280_temperature;BME280_humidity;BME280_pressure;Samples;Min_cycle;Max_cycle;Signal;HPM_P1;HPM_P2
2022/05/03 00:00:18;;;;;;;;;;;;;;;12.16;70.20;92600.50;2058728;69;20053;-69
2022/05/03 00:02:49;;;;;;;;;;;;;;;12.08;70.03;92599.34;2058884;69;20053;-70
2022/05/03 00:05:17;;;;;;;;;;;;;;;12.14;70.13;92594.00;2058543;69;20145;-68
2022/05/03 00:07:46;;;;;;;;;;;;;;;12.05;70.01;92594.94;2071723;69;20058;-70
2022/05/03 00:10:14;;;;;;;;;;;;;;;12.06;69.71;92594.31;2058705;69;20482;-68
2022/05/03 00:12:42;;;;;;;;;;;;;;;12.14;68.78;92594.00;2058640;69;20050;-69
2022/05/03 00:15:09;;;;;;;;;;;;;;;12.11;68.61;92592.44;2058774;69;20114;-70
2022/05/03 00:17:34;;;;;;;;;;;;;;;12.05;68.66;92589.28;2058594;69;20062;-69
2022/05/03 00:20:00;;;;;;;;;;;;;;;11.93;69.35;92581.66;2071808;69;20150;-69
2022/05/03 00:22:26;;;;;;;;;;;;;;;11.84;69.36;92588.22;2058390;69;20049;-69
2022/05/03 00:28:21;;;;;;;;;;;;;;;11.44;70.56;92575.41;2058817;69;20080;-70
2022/05/03 00:30:48;;;;;;;;;;;;;;;11.48;69.21;92575.63;2058763;69;20057;-72
2022/05/03 00:33:15;;;;;;;;;;;;;;;11.49;69.49;92574.28;2058679;69;20050;-73
2022/05/03 00:35:41;;;;;;;;;;;;;;;11.54;68.88;92570.31;2058609;69;20054;-70
2022/05/03 00:38:06;;;;;;;;;;;;;;;11.33;69.59;92573.38;2058612;69;20139;-74
2022/05/03 00:40:33;;;;;;;;;;;;;;;11.31;68.38;92570.44;2058581;69;20505;-69
2022/05/03 00:43:08;;;;;;;;;;;;;;;11.33;68.77;92556.47;2058712;69;20255;-68
2022/05/03 00:45:45;;;;;;;;;;;;;;;11.27;68.88;92565.31;2058568;69;20053;-68
2022/05/03 00:48:29;;;;;;;;;;;;;;;11.19;69.17;92559.22;2058566;69;20053;-69
2022/05/03 00:51:03;;;;;;;;;;;;;;;11.30;67.69;92566.16;2058954;69;20119;-68
2022/05/03 00:53:33;;;;;;;;;;;;;;;11.04;68.89;92551.31;2059117;69;20056;-68
2022/05/03 00:56:05;;;;;;;;;;;;;;;11.00;69.38;92557.47;2072025;69;20146;-68
2022/05/03 00:58:43;;;;;;;;;;;;;;;10.89;69.43;92553.31;2059132;69;20119;-68
2022/05/03 01:01:27;;;;;;;;;;;;;;;10.88;69.41;92556.78;2059130;69;20054;-68
2022/05/03 01:04:06;;;;;;;;;;;;;;;10.75;69.86;92549.69;2059105;69;20093;-68
2022/05/03 01:06:50;;;;;;;;;;;;;;;10.67;70.66;92549.22;2059119;69;20064;-68
2022/05/03 01:09:19;;;;;;;;;;;;;;;10.65;70.06;92551.94;2059161;69;20058;-67
2022/05/03 01:11:59;;;;;;;;;;;;;;;10.76;69.88;92551.16;2059019;69;20165;-67
2022/05/03 01:14:44;;;;;;;;;;;;;;;10.73;69.48;92543.22;2059029;69;20058;-68
2022/05/03 01:17:14;;;;;;;;;;;;;;;10.71;67.92;92548.72;2058818;69;20066;-67
2022/05/03 01:19:51;;;;;;;;;;;;;;;10.71;67.77;92548.72;2059033;69;20038;-67
2022/05/03 01:22:29;;;;;;;;;;;;;;;10.69;67.80;92549.34;2059078;69;20045;-68
2022/05/03 01:24:57;;;;;;;;;;;;;;;10.46;69.67;92549.41;2059037;69;20859;-69
2022/05/03 01:27:32;;;;;;;;;;;;;;;10.48;68.73;92549.53;2058973;69;20053;-66
2022/05/03 01:29:58;;;;;;;;;;;;;;;10.40;68.93;92544.13;2059152;69;20046;-67
2022/05/03 01:32:24;;;;;;;;;;;;;;;10.30;69.63;92549.19;2072048;69;20062;-67
2022/05/03 01:34:50;;;;;;;;;;;;;;;10.27;70.31;92551.16;2059073;69;20107;-67
2022/05/03 01:37:34;;;;;;;;;;;;;;;10.15;70.78;92539.88;2072092;69;20054;-67
2022/05/03 01:43:27;;;;;;;;;;;;;;;10.26;68.12;92548.94;2059122;69;20045;-69
2022/05/03 01:46:05;;;;;;;;;;;;;;;10.23;68.20;92550.16;2059197;69;20046;-68
2022/05/03 01:51:27;;;;;;;;;;;;;;;10.02;70.50;92545.38;2059056;69;20099;-67
2022/05/03 01:53:59;;;;;;;;;;;;;;;10.00;71.01;92546.00;2071978;69;20049;-67
2022/05/03 01:56:40;;;;;;;;;;;;;;;9.99;69.59;92543.78;2058570;69;20114;-68
2022/05/03 01:59:12;;;;;;;;;;;;;;;10.02;70.62;92546.09;2059030;69;20054;-67
2022/05/03 02:01:45;;;;;;;;;;;;;;;9.87;69.75;92538.91;2058805;69;20053;-67
2022/05/03 02:04:30;;;;;;;;;;;;;;;10.00;68.91;92548.09;2059071;69;20049;-67
2022/05/03 02:07:04;;;;;;;;;;;;;;;9.89;68.51;92539.00;2071982;69;20124;-67
2022/05/03 02:09:52;;;;;;;;;;;;;;;9.82;68.98;92537.19;2058843;69;20151;-66
2022/05/03 02:12:19;;;;;;;;;;;;;;;9.70;69.49;92536.44;2058915;69;20069;-66
2022/05/03 02:14:51;;;;;;;;;;;;;;;9.76;69.01;92536.06;2058829;69;20102;-66
2022/05/03 02:17:20;;;;;;;;;;;;;;;9.73;68.97;92543.66;2058865;69;20555;-67
2022/05/03 02:19:55;;;;;;;;;;;;;;;9.63;69.27;92543.03;2059021;69;20056;-67
2022/05/03 02:22:20;;;;;;;;;;;;;;;9.56;69.92;92541.94;2071655;69;20475;-70
2022/05/03 02:25:05;;;;;;;;;;;;;;;9.63;68.39;92543.78;2059201;69;20498;-69
2022/05/03 02:27:31;;;;;;;;;;;;;;;9.55;69.94;92539.72;2058828;69;20046;-69
2022/05/03 02:29:57;;;;;;;;;;;;;;;9.65;69.56;92537.53;2058877;69;20060;-71
2022/05/03 02:32:41;;;;;;;;;;;;;;;9.57;68.96;92540.56;2058986;69;20066;-68
2022/05/03 02:35:13;;;;;;;;;;;;;;;9.56;69.88;92541.94;2058971;69;20077;-71
2022/05/03 02:37:50;;;;;;;;;;;;;;;9.49;70.47;92537.28;2058902;69;20073;-70
2022/05/03 02:40:18;;;;;;;;;;;;;;;9.59;69.84;92537.19;2059022;69;20089;-70
2022/05/03 02:42:44;;;;;;;;;;;;;;;9.40;70.13;92540.94;2058939;69;20146;-68
2022/05/03 02:45:11;;;;;;;;;;;;;;;9.43;70.39;92532.00;2058904;69;20181;-68
2022/05/03 02:47:43;;;;;;;;;;;;;;;9.48;70.29;92532.25;2058859;69;20042;-70
2022/05/03 02:50:18;;;;;;;;;;;;;;;9.41;69.57;92533.97;2058808;69;20053;-70
2022/05/03 02:52:49;;;;;;;;;;;;;;;9.38;70.72;92535.16;2058837;69;20418;-73
2022/05/03 02:55:21;;;;;;;;;;;;;;;9.32;71.50;92529.91;2071786;69;20069;-70
2022/05/03 02:57:53;;;;;;;;;;;;;;;9.28;71.32;92528.94;2058576;69;20157;-68
2022/05/03 03:03:22;;;;;;;;;;;;;;;9.35;70.20;92528.72;2058812;69;20046;-70
2022/05/03 03:05:56;;;;;;;;;;;;;;;9.40;69.57;92527.63;2058801;69;20487;-68
2022/05/03 03:08:23;;;;;;;;;;;;;;;9.23;70.86;92524.41;2058885;69;20130;-72
2022/05/03 03:10:48;;;;;;;;;;;;;;;9.21;71.68;92524.25;2058999;69;20057;-72
2022/05/03 03:13:35;;;;;;;;;;;;;;;9.18;70.62;92526.22;2058818;69;20054;-70
2022/05/03 03:16:00;;;;;;;;;;;;;;;9.15;70.15;92528.16;2072061;69;20133;-73
2022/05/03 03:18:26;;;;;;;;;;;;;;;8.85;71.93;92521.34;2059071;69;20078;-75
2022/05/03 03:20:56;;;;;;;;;;;;;;;8.98;71.14;92528.50;2059010;69;20093;-70
2022/05/03 03:23:25;;;;;;;;;;;;;;;9.05;70.90;92521.16;2072003;69;20162;-70
2022/05/03 03:25:51;;;;;;;;;;;;;;;9.15;70.25;92516.19;2058973;69;20061;-73
2022/05/03 03:28:19;;;;;;;;;;;;;;;9.10;71.14;92529.25;2058880;69;20418;-68
2022/05/03 03:30:45;;;;;;;;;;;;;;;9.13;70.64;92527.31;2058912;69;20512;-68
2022/05/03 03:33:12;;;;;;;;;;;;;;;9.04;70.37;92526.06;2058922;69;20050;-69
2022/05/03 03:35:38;;;;;;;;;;;;;;;9.00;70.14;92522.25;2058955;69;20093;-69
2022/05/03 03:38:05;;;;;;;;;;;;;;;8.80;71.70;92527.31;2058976;69;20478;-70
2022/05/03 03:40:30;;;;;;;;;;;;;;;8.75;72.59;92534.00;2069075;69;20050;-68
2022/05/03 03:42:56;;;;;;;;;;;;;;;8.79;71.01;92537.78;2058840;69;20053;-70
2022/05/03 03:45:23;;;;;;;;;;;;;;;8.90;71.11;92542.72;2058933;69;20048;-68
2022/05/03 03:47:48;;;;;;;;;;;;;;;8.86;71.06;92536.84;2059060;69;20119;-69
2022/05/03 03:50:14;;;;;;;;;;;;;;;8.87;70.51;92534.78;2058862;69;20062;-68
2022/05/03 03:52:41;;;;;;;;;;;;;;;8.81;71.07;92540.75;2058811;69;20081;-68
2022/05/03 03:55:07;;;;;;;;;;;;;;;8.91;71.30;92538.56;2058990;69;20138;-69
2022/05/03 03:57:35;;;;;;;;;;;;;;;8.85;70.36;92543.09;2058878;69;20524;-70
2022/05/03 04:00:02;;;;;;;;;;;;;;;8.92;69.75;92544.94;2058849;69;20425;-68
2022/05/03 04:02:37;;;;;;;;;;;;;;;8.82;69.17;92539.41;2071058;69;20089;-68
2022/05/03 04:05:03;;;;;;;;;;;;;;;8.79;70.74;92537.06;2059047;69;20596;-70
2022/05/03 04:07:29;;;;;;;;;;;;;;;8.64;71.65;92541.03;2058908;69;20054;-71
2022/05/03 04:09:54;;;;;;;;;;;;;;;8.82;70.57;92549.91;2058972;69;20058;-68
2022/05/03 04:12:20;;;;;;;;;;;;;;;8.77;71.10;92545.34;2058894;69;20054;-71
2022/05/03 04:14:46;;;;;;;;;;;;;;;8.60;71.63;92546.38;2058995;69;20078;-69
2022/05/03 04:17:12;;;;;;;;;;;;;;;8.70;71.54;92549.81;2058916;69;20089;-69
2022/05/03 04:19:37;;;;;;;;;;;;;;;8.74;70.31;92547.28;2058861;69;20424;-69
2022/05/03 04:22:12;;;;;;;;;;;;;;;8.59;71.59;92542.09;2071874;69;20508;-71
2022/05/03 04:24:40;;;;;;;;;;;;;;;8.59;71.60;92539.28;2059207;69;20053;-69
2022/05/03 04:27:06;;;;;;;;;;;;;;;8.57;71.47;92545.50;2059252;69;20050;-73
2022/05/03 04:29:31;;;;;;;;;;;;;;;8.55;71.28;92550.97;2059316;69;20516;-74
2022/05/03 04:31:57;;;;;;;;;;;;;;;8.44;73.05;92550.94;2059509;69;20050;-73
2022/05/03 04:34:22;;;;;;;;;;;;;;;8.67;70.57;92556.66;2059537;69;20494;-72
2022/05/03 04:36:48;;;;;;;;;;;;;;;8.64;71.36;92555.06;2059350;69;20077;-71
2022/05/03 04:39:13;;;;;;;;;;;;;;;8.56;71.48;92557.31;2059542;69;20050;-71
2022/05/03 04:41:39;;;;;;;;;;;;;;;8.66;70.25;92558.00;2059066;69;20148;-70
2022/05/03 04:44:04;;;;;;;;;;;;;;;8.58;71.91;92561.00;2059429;69;20145;-71
2022/05/03 04:46:30;;;;;;;;;;;;;;;8.71;69.38;92559.75;2059436;69;20053;-67
2022/05/03 04:48:55;;;;;;;;;;;;;;;8.79;69.36;92557.44;2059432;69;20053;-76
2022/05/03 04:51:23;;;;;;;;;;;;;;;8.79;68.20;92568.66;2059263;69;20081;-70
2022/05/03 04:53:48;;;;;;;;;;;;;;;8.72;71.49;92568.88;2059329;69;20050;-76
2022/05/03 04:56:21;;;;;;;;;;;;;;;8.88;70.51;92569.94;2059208;69;20046;-73
2022/05/03 04:58:50;;;;;;;;;;;;;;;8.75;72.55;92559.25;2059366;69;20054;-73
2022/05/03 05:01:16;;;;;;;;;;;;;;;8.76;71.92;92569.88;2059060;69;20089;-74
2022/05/03 05:03:42;;;;;;;;;;;;;;;8.99;70.06;92576.94;2059175;69;20076;-70
2022/05/03 05:06:07;;;;;;;;;;;;;;;8.98;71.68;92569.84;2059218;69;20412;-73
2022/05/03 05:08:33;;;;;;;;;;;;;;;8.97;71.81;92571.19;2059384;69;20413;-72
2022/05/03 05:10:58;;;;;;;;;;;;;;;8.95;72.60;92577.41;2059138;69;20053;-71
2022/05/03 05:13:25;;;;;;;;;;;;;;;8.77;72.05;92576.97;2059371;69;20495;-70
2022/05/03 05:15:50;;;;;;;;;;;;;;;8.93;71.77;92579.34;2058958;69;20046;-70
2022/05/03 05:18:16;;;;;;;;;;;;;;;8.99;70.60;92571.34;2072152;69;20068;-71
2022/05/03 05:20:43;;;;;;;;;;;;;;;8.89;71.53;92580.56;2059150;69;20073;-73
2022/05/03 05:23:08;;;;;;;;;;;;;;;9.09;70.23;92581.13;2059172;69;20430;-77
2022/05/03 05:25:34;;;;;;;;;;;;;;;9.06;70.14;92578.78;2059208;69;20497;-69
2022/05/03 05:27:59;;;;;;;;;;;;;;;8.99;71.47;92580.50;2059362;69;20042;-69
2022/05/03 05:30:24;;;;;;;;;;;;;;;9.01;72.19;92580.59;2059298;69;20154;-69
2022/05/03 05:36:18;;;;;;;;;;;;;;;8.98;71.86;92576.22;2059158;69;20053;-70
2022/05/03 05:38:43;;;;;;;;;;;;;;;9.05;71.61;92575.25;2059294;69;20057;-69
2022/05/03 05:41:12;;;;;;;;;;;;;;;9.00;72.33;92576.34;2059097;69;20057;-69
2022/05/03 05:43:38;;;;;;;;;;;;;;;9.13;69.45;92583.47;2059196;69;20558;-70
2022/05/03 05:46:04;;;;;;;;;;;;;;;9.22;69.86;92579.13;2058994;69;20056;-70
2022/05/03 05:48:29;;;;;;;;;;;;;;;9.28;70.12;92580.22;2059074;69;20513;-73
2022/05/03 05:50:55;;;;;;;;;;;;;;;9.30;68.55;92580.38;2059022;69;20065;-70
2022/05/03 05:53:32;;;;;;;;;;;;;;;9.30;69.09;92585.22;2059205;69;20227;-72
2022/05/03 05:55:59;;;;;;;;;;;;;;;9.35;69.31;92587.72;2059178;69;20117;-70
2022/05/03 05:58:25;;;;;;;;;;;;;;;9.32;70.02;92588.19;2059197;69;20060;-71
2022/05/03 06:00:50;;;;;;;;;;;;;;;9.23;71.94;92589.72;2059167;69;20046;-69
2022/05/03 06:03:16;;;;;;;;;;;;;;;9.26;71.65;92594.16;2059115;69;20057;-69
2022/05/03 06:05:42;;;;;;;;;;;;;;;9.23;72.30;92597.44;2059118;69;20077;-69
2022/05/03 06:08:09;;;;;;;;;;;;;;;9.30;72.31;92599.28;2059145;69;20057;-74
2022/05/03 06:10:35;;;;;;;;;;;;;;;9.26;72.44;92599.78;2059016;69;20046;-71
2022/05/03 06:13:02;;;;;;;;;;;;;;;9.39;70.03;92604.06;2059270;69;20057;-69
2022/05/03 06:15:28;;;;;;;;;;;;;;;9.40;70.58;92597.84;2059128;69;20114;-69
2022/05/03 06:17:53;;;;;;;;;;;;;;;9.32;70.46;92600.16;2059098;69;20061;-69
2022/05/03 06:20:18;;;;;;;;;;;;;;;9.36;70.16;92600.41;2059105;69;20569;-74
2022/05/03 06:22:44;;;;;;;;;;;;;;;9.28;71.64;92596.34;2059213;69;20065;-72
2022/05/03 06:25:10;;;;;;;;;;;;;;;9.34;71.14;92594.66;2059020;69;20070;-73
2022/05/03 06:27:36;;;;;;;;;;;;;;;9.25;71.25;92600.34;2059102;69;20053;-72
2022/05/03 06:30:02;;;;;;;;;;;;;;;9.46;71.67;92591.16;2059163;69;20160;-73
2022/05/03 06:32:28;;;;;;;;;;;;;;;9.55;70.67;92595.94;2059137;69;20049;-71
2022/05/03 06:34:53;;;;;;;;;;;;;;;9.76;69.27;92601.50;2059094;69;20113;-70
2022/05/03 06:37:19;;;;;;;;;;;;;;;9.99;68.48;92592.34;2059073;69;20050;-69
2022/05/03 06:39:44;;;;;;;;;;;;;;;10.19;66.96;92604.09;2059162;69;20102;-72
2022/05/03 06:42:10;;;;;;;;;;;;;;;9.94;70.20;92599.03;2059077;69;20076;-70
2022/05/03 06:44:37;;;;;;;;;;;;;;;9.96;71.12;92595.63;2059180;69;20054;-74
2022/05/03 06:47:03;;;;;;;;;;;;;;;10.24;70.63;92594.56;2072082;69;20061;-72
2022/05/03 06:49:28;;;;;;;;;;;;;;;9.91;71.36;92600.28;2072093;69;20042;-69
2022/05/03 06:51:54;;;;;;;;;;;;;;;10.18;71.14;92592.09;2059259;69;20477;-70
2022/05/03 06:54:19;;;;;;;;;;;;;;;10.23;70.79;92598.72;2059169;69;20492;-70
2022/05/03 06:56:45;;;;;;;;;;;;;;;10.64;66.20;92593.44;2059023;69;20050;-70
2022/05/03 06:59:10;;;;;;;;;;;;;;;10.84;67.85;92593.16;2059176;69;20135;-70
2022/05/03 07:01:36;;;;;;;;;;;;;;;11.12;67.68;92586.31;2059037;69;20406;-69
2022/05/03 07:04:01;;;;;;;;;;;;;;;11.18;68.67;92592.31;2058963;69;20437;-69
2022/05/03 07:06:27;;;;;;;;;;;;;;;11.35;67.65;92593.94;2058760;69;20057;-70
2022/05/03 07:08:52;;;;;;;;;;;;;;;11.56;70.06;92595.81;2058982;69;20053;-72
2022/05/03 07:11:18;;;;;;;;;;;;;;;11.75;72.31;92588.38;2071939;69;20122;-70
2022/05/03 07:13:44;;;;;;;;;;;;;;;11.91;67.78;92595.66;2059018;69;20150;-68
2022/05/03 07:16:10;;;;;;;;;;;;;;;12.12;68.53;92593.91;2072122;69;20065;-68
2022/05/03 07:24:03;;;;;;;;;;;;;;;13.12;63.62;92596.19;2059202;69;20050;-69
2022/05/03 07:26:30;;;;;;;;;;;;;;;13.50;63.42;92600.19;2071846;69;20078;-68
2022/05/03 07:28:56;;;;;;;;;;;;;;;13.93;63.83;92591.66;2058817;69;20054;-70
2022/05/03 07:31:21;;;;;;;;;;;;;;;14.23;65.76;92597.97;2058810;69;20061;-69
2022/05/03 07:33:48;;;;;;;;;;;;;;;14.31;64.64;92596.91;2058900;69;20046;-71
2022/05/03 07:36:14;;;;;;;;;;;;;;;14.70;64.66;92590.84;2058907;69;20054;-71
2022/05/03 07:38:42;;;;;;;;;;;;;;;15.13;63.02;92592.69;2058480;69;20046;-69
2022/05/03 07:41:08;;;;;;;;;;;;;;;15.39;62.41;92585.28;2058222;69;20050;-73
2022/05/03 07:43:33;;;;;;;;;;;;;;;15.52;61.27;92592.19;2058553;69;20150;-73
2022/05/03 07:45:59;;;;;;;;;;;;;;;15.80;55.96;92589.78;2071764;69;20070;-69
2022/05/03 07:48:24;;;;;;;;;;;;;;;16.14;56.42;92590.41;2058822;69;20182;-72
2022/05/03 07:50:50;;;;;;;;;;;;;;;16.15;54.20;92594.69;2058920;69;20382;-68
2022/05/03 07:53:15;;;;;;;;;;;;;;;16.60;51.12;92593.53;2058849;69;20060;-68
2022/05/03 07:55:43;;;;;;;;;;;;;;;17.10;53.23;92596.78;2058972;69;20474;-68
2022/05/03 07:58:09;;;;;;;;;;;;;;;17.58;52.43;92590.56;2058870;69;20050;-69
2022/05/03 08:00:34;;;;;;;;;;;;;;;17.34;48.90;92593.31;2058948;69;20065;-69
2022/05/03 08:03:00;;;;;;;;;;;;;;;16.90;50.43;92593.22;2058603;69;20049;-69
2022/05/03 08:05:25;;;;;;;;;;;;;;;16.69;51.98;92583.22;2058791;69;20139;-69
2022/05/03 08:07:51;;;;;;;;;;;;;;;17.73;49.32;92587.56;2058810;69;20616;-72
2022/05/03 08:10:16;;;;;;;;;;;;;;;17.47;48.99;92592.34;2058774;69;20047;-69
2022/05/03 08:12:43;;;;;;;;;;;;;;;18.01;49.76;92590.56;2058928;69;20157;-68
2022/05/03 08:15:09;;;;;;;;;;;;;;;18.33;47.31;92589.41;2058618;69;20058;-70
2022/05/03 08:17:34;;;;;;;;;;;;;;;17.84;47.00;92591.44;2058736;69;20050;-71
2022/05/03 08:20:00;;;;;;;;;;;;;;;18.11;48.50;92590.16;2058719;69;20110;-70
2022/05/03 08:22:26;;;;;;;;;;;;;;;17.78;47.96;92583.44;2058777;69;20391;-71
2022/05/03 08:24:51;;;;;;;;;;;;;;;18.69;47.35;92592.63;2058873;69;20074;-70
2022/05/03 08:27:17;;;;;;;;;;;;;;;19.05;45.97;92590.78;2058679;69;20049;-68
2022/05/03 08:29:43;;;;;;;;;;;;;;;19.46;46.37;92594.03;2058734;69;20097;-74
2022/05/03 08:32:09;;;;;;;;;;;;;;;19.59;46.58;92586.50;2058441;69;20050;-68
2022/05/03 08:34:35;;;;;;;;;;;;;;;19.90;45.28;92590.88;2058719;69;20057;-68
2022/05/03 08:43:13;;;;;;;;;;;;;;;19.90;43.29;92585.16;2058787;69;20081;-68
2022/05/03 08:45:42;;;;;;;;;;;;;;;20.61;41.67;92577.50;2058882;69;20082;-68
2022/05/03 08:48:08;;;;;;;;;;;;;;;20.79;41.17;92581.47;2058811;69;20141;-69
2022/05/03 08:50:34;;;;;;;;;;;;;;;19.85;41.33;92580.75;2058708;69;20137;-68
2022/05/03 08:53:02;;;;;;;;;;;;;;;20.59;40.82;92581.06;2058721;69;20050;-68
2022/05/03 08:55:27;;;;;;;;;;;;;;;20.53;39.75;92575.22;2058661;69;20066;-68
2022/05/03 08:57:53;;;;;;;;;;;;;;;21.18;38.99;92567.97;2058670;69;20046;-70
2022/05/03 09:00:19;;;;;;;;;;;;;;;21.36;37.77;92569.75;2071479;69;20602;-71
2022/05/03 09:02:52;;;;;;;;;;;;;;;21.54;39.62;92570.09;2058537;69;20114;-74
2022/05/03 09:05:18;;;;;;;;;;;;;;;21.98;38.06;92560.78;2058677;69;20114;-70
2022/05/03 09:11:14;;;;;;;;;;;;;;;20.61;38.37;92554.63;2058850;69;20048;-69
2022/05/03 09:13:40;;;;;;;;;;;;;;;22.25;38.11;92559.09;2059257;69;20119;-70
2022/05/03 09:16:16;;;;;;;;;;;;;;;22.72;36.41;92554.03;2059195;69;20047;-70
2022/05/03 09:18:43;;;;;;;;;;;;;;;21.76;38.43;92559.03;2072246;69;20050;-74
2022/05/03 09:24:07;;;;;;;;;;;;;;;22.37;35.69;92550.69;2059279;69;20048;-69
2022/05/03 09:26:33;;;;;;;;;;;;;;;21.65;37.47;92550.94;2072110;69;20156;-72
2022/05/03 09:29:01;;;;;;;;;;;;;;;22.23;37.51;92548.34;2059190;69;20050;-72
2022/05/03 09:31:27;;;;;;;;;;;;;;;23.21;35.60;92551.78;2072232;69;20525;-73
2022/05/03 09:33:53;;;;;;;;;;;;;;;23.71;33.54;92545.16;2059180;69;20042;-69
2022/05/03 09:36:18;;;;;;;;;;;;;;;24.05;32.57;92542.59;2059174;69;20052;-69
2022/05/03 09:38:45;;;;;;;;;;;;;;;23.82;33.20;92541.69;2058927;69;20429;-69
2022/05/03 09:41:14;;;;;;;;;;;;;;;24.32;34.17;92534.16;2058995;69;20049;-69
2022/05/03 09:43:58;;;;;;;;;;;;;;;24.05;31.26;92539.72;2059324;69;20133;-68
2022/05/03 09:46:24;;;;;;;;;;;;;;;24.80;31.71;92538.78;2059143;69;20056;-71
2022/05/03 09:48:54;;;;;;;;;;;;;;;24.86;31.08;92530.19;2059256;69;20463;-69
2022/05/03 09:51:21;;;;;;;;;;;;;;;24.52;32.19;92537.19;2059098;69;20129;-69
2022/05/03 09:53:56;;;;;;;;;;;;;;;24.76;31.48;92535.88;2059170;69;20093;-75
2022/05/03 09:56:23;;;;;;;;;;;;;;;24.81;32.28;92523.69;2059100;69;20433;-73
2022/05/03 09:58:51;;;;;;;;;;;;;;;25.75;29.80;92515.34;2059108;69;20068;-69
2022/05/03 10:01:16;;;;;;;;;;;;;;;26.28;29.88;92518.25;2059246;69;20038;-69
2022/05/03 10:03:43;;;;;;;;;;;;;;;26.35;28.42;92513.22;2059118;69;20073;-68
2022/05/03 10:06:09;;;;;;;;;;;;;;;26.15;29.02;92513.94;2059124;69;20524;-72
2022/05/03 10:08:35;;;;;;;;;;;;;;;25.30;29.21;92511.66;2059130;69;20073;-72
2022/05/03 10:11:01;;;;;;;;;;;;;;;25.51;30.21;92503.78;2059114;69;20046;-70
2022/05/03 10:13:27;;;;;;;;;;;;;;;26.04;28.70;92501.69;2059236;69;20062;-70
2022/05/03 10:21:29;;;;;;;;;;;;;;;26.02;28.59;92495.19;2075430;69;20130;-69
2022/05/03 10:24:05;;;;;;;;;;;;;;;27.19;26.52;92490.66;2075408;69;20537;-71
2022/05/03 10:26:50;;;;;;;;;;;;;;;25.71;29.53;92480.75;2074491;69;20044;-68
2022/05/03 10:29:15;;;;;;;;;;;;;;;26.90;27.06;92483.53;2075326;69;20052;-70
2022/05/03 10:31:51;;;;;;;;;;;;;;;26.31;27.97;92478.59;2075311;69;20096;-71
2022/05/03 10:34:36;;;;;;;;;;;;;;;27.90;26.15;92486.63;2075367;69;20056;-69
2022/05/03 10:37:03;;;;;;;;;;;;;;;27.96;25.51;92475.03;2075384;69;20500;-71
2022/05/03 10:39:28;;;;;;;;;;;;;;;29.35;26.13;92477.22;2075383;69;20044;-71
2022/05/03 10:41:58;;;;;;;;;;;;;;;29.58;23.93;92476.94;2075254;69;20393;-72
2022/05/03 10:44:42;;;;;;;;;;;;;;;29.38;23.82;92467.03;2074804;69;20080;-75
2022/05/03 10:47:08;;;;;;;;;;;;;;;30.39;23.87;92457.56;2075329;69;20048;-73
2022/05/03 10:49:33;;;;;;;;;;;;;;;31.38;22.15;92460.06;2075377;69;20044;-70
2022/05/03 10:51:59;;;;;;;;;;;;;;;31.37;21.35;92455.72;2075420;69;20052;-73
2022/05/03 10:54:24;;;;;;;;;;;;;;;30.64;21.05;92460.75;2075447;69;20396;-74
2022/05/03 10:57:07;;;;;;;;;;;;;;;30.95;21.32;92452.19;2075313;69;20103;-70
2022/05/03 10:59:59;;;;;;;;;;;;;;;34.83;18.10;92451.34;2074609;69;20072;-71
2022/05/03 11:02:25;;;;;;;;;;;;;;;37.33;16.11;92448.91;2074479;69;20063;-74
2022/05/03 11:05:11;;;;;;;;;;;;;;;37.25;16.18;92449.28;2075201;69;20488;-75
2022/05/03 11:07:36;;;;;;;;;;;;;;;38.64;15.11;92445.78;2075244;69;20091;-70
2022/05/03 11:10:20;;;;;;;;;;;;;;;38.31;12.73;92440.78;2075401;69;20108;-71
2022/05/03 11:12:49;;;;;;;;;;;;;;;39.62;13.93;92440.75;2074885;69;20052;-71
2022/05/03 11:15:15;;;;;;;;;;;;;;;40.51;13.09;92440.34;2075263;69;20096;-69
2022/05/03 11:17:41;;;;;;;;;;;;;;;35.91;13.73;92429.13;2074643;69;20055;-70
2022/05/03 11:20:07;;;;;;;;;;;;;;;31.99;18.28;92412.16;2075266;69;20508;-70
2022/05/03 11:22:35;;;;;;;;;;;;;;;29.81;16.61;92408.44;2074721;69;20135;-70
2022/05/03 11:25:05;;;;;;;;;;;;;;;32.52;17.08;92404.31;2075229;69;20509;-69
2022/05/03 11:27:31;;;;;;;;;;;;;;;35.89;13.75;92406.50;2075172;69;20063;-71
2022/05/03 11:29:57;;;;;;;;;;;;;;;33.06;16.50;92396.28;2075205;69;20044;-72
2022/05/03 11:32:30;;;;;;;;;;;;;;;31.92;17.43;92383.97;2075238;69;20045;-70
2022/05/03 11:35:00;;;;;;;;;;;;;;;32.64;15.79;92395.25;2074228;69;20056;-69
2022/05/03 11:37:25;;;;;;;;;;;;;;;32.44;16.91;92396.50;2074953;69;20095;-71
2022/05/03 11:39:52;;;;;;;;;;;;;;;36.23;14.32;92397.13;2075113;69;20148;-71
2022/05/03 11:42:21;;;;;;;;;;;;;;;38.81;13.10;92393.47;2074509;69;20117;-69
2022/05/03 11:44:46;;;;;;;;;;;;;;;40.77;13.27;92399.75;2074704;69;20206;-69
2022/05/03 11:47:13;;;;;;;;;;;;;;;39.70;13.42;92396.19;2075187;69;20076;-72
2022/05/03 11:49:39;;;;;;;;;;;;;;;37.70;11.51;92385.59;2075181;69;20051;-69
2022/05/03 11:57:33;;;;;;;;;;;;;;;31.88;14.40;92370.94;2075106;69;20071;-71
2022/05/03 11:59:59;;;;;;;;;;;;;;;30.48;17.24;92360.13;2074971;69;20072;-68
2022/05/03 12:02:24;;;;;;;;;;;;;;;29.85;17.50;92343.84;2074493;69;20459;-72
2022/05/03 12:05:00;;;;;;;;;;;;;;;28.26;17.90;92354.66;2075120;69;20493;-78
2022/05/03 12:07:25;;;;;;;;;;;;;;;28.96;17.39;92354.59;2075093;69;20052;-76
2022/05/03 12:09:51;;;;;;;;;;;;;;;29.98;18.44;92350.84;2074690;69;20054;-72
2022/05/03 12:15:12;;;;;;;;;;;;;;;28.35;19.93;92350.25;2075009;69;20056;-73
2022/05/03 12:17:56;;;;;;;;;;;;;;;28.26;19.29;92355.38;2069761;69;20050;-70
2022/05/03 12:20:22;;;;;;;;;;;;;;;27.90;21.29;92361.53;2058698;69;20050;-70
2022/05/03 12:23:14;;;;;;;;;;;;;;;27.94;20.66;92359.31;2071755;69;20054;-67
2022/05/03 12:25:43;;;;;;;;;;;;;;;26.41;21.65;92345.84;2044481;70;20055;-74
2022/05/03 12:28:09;;;;;;;;;;;;;;;27.32;22.08;92362.00;2044675;70;20058;-68
2022/05/03 12:30:35;;;;;;;;;;;;;;;27.32;21.55;92353.31;2044752;70;20063;-67
2022/05/03 12:33:05;;;;;;;;;;;;;;;27.69;21.60;92346.53;2044707;70;20562;-68
2022/05/03 12:35:31;;;;;;;;;;;;;;;27.11;22.46;92343.34;2044701;70;20082;-68
2022/05/03 12:37:57;;;;;;;;;;;;;;;26.64;21.45;92349.38;2044603;70;20143;-68
2022/05/03 12:40:24;;;;;;;;;;;;;;;24.89;23.18;92350.28;2044618;70;20162;-70
2022/05/03 12:42:49;;;;;;;;;;;;;;;24.59;24.12;92340.09;2044669;70;20055;-69
2022/05/03 12:45:15;;;;;;;;;;;;;;;25.14;22.67;92341.69;2042133;70;20054;-72
2022/05/03 12:47:41;;;;;;;;;;;;;;;24.78;23.94;92337.28;2045081;70;20067;-70
2022/05/03 12:50:07;;;;;;;;;;;;;;;24.47;25.43;92330.75;2045069;70;20158;-68
2022/05/03 12:52:32;;;;;;;;;;;;;;;24.44;23.42;92329.28;2045271;70;20169;-68
2022/05/03 12:54:59;;;;;;;;;;;;;;;24.81;24.21;92330.81;2045223;70;20225;-71
2022/05/03 13:00:11;;;;;;;;;;;;;;;25.82;22.97;92322.94;2045116;70;20055;-69
2022/05/03 13:02:36;;;;;;;;;;;;;;;26.17;23.00;92325.75;2060927;69;20126;-69
2022/05/03 13:05:02;;;;;;;;;;;;;;;25.93;22.89;92321.47;2059216;69;20449;-69
2022/05/03 13:07:27;;;;;;;;;;;;;;;27.28;22.37;92318.66;2059104;69;20058;-68
2022/05/03 13:09:53;;;;;;;;;;;;;;;27.38;20.91;92320.75;2059121;69;20119;-69
2022/05/03 13:12:18;;;;;;;;;;;;;;;29.42;18.03;92320.59;2072036;69;20097;-68
2022/05/03 13:14:44;;;;;;;;;;;;;;;31.22;16.63;92318.66;2059282;69;20118;-70
2022/05/03 13:17:10;;;;;;;;;;;;;;;32.05;15.09;92315.22;2059118;69;20102;-72
2022/05/03 13:19:36;;;;;;;;;;;;;;;30.92;14.09;92308.41;2059178;69;20115;-70
2022/05/03 13:25:31;;;;;;;;;;;;;;;30.07;16.39;92302.09;2059115;69;20166;-74
2022/05/03 13:27:56;;;;;;;;;;;;;;;33.97;12.62;92303.81;2059210;69;20449;-74
2022/05/03 13:30:22;;;;;;;;;;;;;;;36.11;12.79;92307.53;2059075;69;20160;-76
2022/05/03 13:32:48;;;;;;;;;;;;;;;31.88;15.22;92286.53;2059142;69;20057;-72
2022/05/03 13:35:13;;;;;;;;;;;;;;;29.59;17.66;92286.97;2059148;69;20056;-75
2022/05/03 13:40:29;;;;;;;;;;;;;;;28.13;16.69;92273.03;2059043;69;20070;-68
2022/05/03 13:42:54;;;;;;;;;;;;;;;28.12;16.19;92275.22;2058995;69;20116;-68
2022/05/03 13:45:20;;;;;;;;;;;;;;;27.75;16.74;92279.97;2059026;69;20062;-68
2022/05/03 13:47:46;;;;;;;;;;;;;;;28.01;16.51;92279.72;2059004;69;20145;-68
2022/05/03 13:50:12;;;;;;;;;;;;;;;27.42;16.39;92277.38;2058977;69;20046;-71
2022/05/03 13:52:38;;;;;;;;;;;;;;;27.52;18.74;92277.28;2072098;69;20050;-68